sensor_id;sensor_type;location;lat;lon;timestamp;pressure;altitude;pressure_sealevel;temperature;humidity
2188;BME280;1100;52.014;8.540;2023-02-01T00:01:55;100269.97;;;2.43;94.86
2188;BME280;1100;52.014;8.540;2023-02-01T00:04:21;100272.31;;;2.45;94.68
2188;BME280;1100;52.014;8.540;2023-02-01T00:06:46;100261.75;;;2.47;94.77
2188;BME280;1100;52.014;8.540;2023-02-01T00:09:12;100250.75;;;2.43;94.89
2188;BME280;1100;52.014;8.540;2023-02-01T00:11:38;100257.03;;;2.44;94.76
2188;BME280;1100;52.014;8.540;2023-02-01T00:14:03;100260.16;;;2.42;95.15
2188;BME280;1100;52.014;8.540;2023-02-01T00:16:30;100261.72;;;2.40;95.05
2188;BME280;1100;52.014;8.540;2023-02-01T00:19:02;100257.00;;;2.40;94.97
2188;BME280;1100;52.014;8.540;2023-02-01T00:21:28;100253.84;;;2.38;94.99
2188;BME280;1100;52.014;8.540;2023-02-01T00:23:54;100264.03;;;2.38;95.02
2188;BME280;1100;52.014;8.540;2023-02-01T00:26:24;100264.47;;;2.40;94.66
2188;BME280;1100;52.014;8.540;2023-02-01T00:28:50;100262.09;;;2.38;94.58
2188;BME280;1100;52.014;8.540;2023-02-01T00:31:16;100260.13;;;2.39;94.80
2188;BME280;1100;52.014;8.540;2023-02-01T00:33:41;100263.66;;;2.39;94.74
2188;BME280;1100;52.014;8.540;2023-02-01T00:36:08;100257.78;;;2.41;94.79
2188;BME280;1100;52.014;8.540;2023-02-01T00:38:36;100247.63;;;2.41;94.86
2188;BME280;1100;52.014;8.540;2023-02-01T00:41:04;100259.34;;;2.42;94.93
2188;BME280;1100;52.014;8.540;2023-02-01T00:43:33;100243.31;;;2.44;94.66
2188;BME280;1100;52.014;8.540;2023-02-01T00:45:59;100236.66;;;2.45;94.74
2188;BME280;1100;52.014;8.540;2023-02-01T00:48:25;100236.66;;;2.45;94.67
2188;BME280;1100;52.014;8.540;2023-02-01T00:50:51;100235.88;;;2.44;94.76
2188;BME280;1100;52.014;8.540;2023-02-01T00:53:16;100243.28;;;2.40;94.37
2188;BME280;1100;52.014;8.540;2023-02-01T00:55:45;100243.28;;;2.40;94.82
2188;BME280;1100;52.014;8.540;2023-02-01T00:58:10;100237.03;;;2.40;94.49
2188;BME280;1100;52.014;8.540;2023-02-01T01:00:36;100242.50;;;2.40;94.60
2188;BME280;1100;52.014;8.540;2023-02-01T01:03:01;100244.44;;;2.39;94.65
2188;BME280;1100;52.014;8.540;2023-02-01T01:05:26;100244.44;;;2.39;94.44
2188;BME280;1100;52.014;8.540;2023-02-01T01:07:54;100239.34;;;2.38;94.60
2188;BME280;1100;52.014;8.540;2023-02-01T01:10:20;100246.38;;;2.35;94.63
2188;BME280;1100;52.014;8.540;2023-02-01T01:12:46;100234.63;;;2.34;94.81
2188;BME280;1100;52.014;8.540;2023-02-01T01:15:11;100235.81;;;2.37;94.79
2188;BME280;1100;52.014;8.540;2023-02-01T01:17:36;100241.72;;;2.39;94.51
2188;BME280;1100;52.014;8.540;2023-02-01T01:20:02;100240.16;;;2.42;94.61
2188;BME280;1100;52.014;8.540;2023-02-01T01:22:28;100228.41;;;2.41;94.25
2188;BME280;1100;52.014;8.540;2023-02-01T01:24:53;100231.91;;;2.42;94.37
2188;BME280;1100;52.014;8.540;2023-02-01T01:27:18;100222.13;;;2.41;94.59
2188;BME280;1100;52.014;8.540;2023-02-01T01:29:49;100227.59;;;2.41;94.66
2188;BME280;1100;52.014;8.540;2023-02-01T01:32:14;100232.34;;;2.44;94.48
2188;BME280;1100;52.014;8.540;2023-02-01T01:34:39;100239.81;;;2.47;94.85
2188;BME280;1100;52.014;8.540;2023-02-01T01:37:04;100241.00;;;2.46;94.43
2188;BME280;1100;52.014;8.540;2023-02-01T01:39:30;100237.47;;;2.49;94.59
2188;BME280;1100;52.014;8.540;2023-02-01T01:41:55;100227.66;;;2.48;94.51
2188;BME280;1100;52.014;8.540;2023-02-01T01:47:26;100240.22;;;2.49;94.59
2188;BME280;1100;52.014;8.540;2023-02-01T01:49:51;100232.00;;;2.49;94.41
2188;BME280;1100;52.014;8.540;2023-02-01T01:52:17;100224.91;;;2.48;94.68
2188;BME280;1100;52.014;8.540;2023-02-01T01:54:45;100233.53;;;2.46;94.75
2188;BME280;1100;52.014;8.540;2023-02-01T01:57:18;100226.50;;;2.49;94.59
2188;BME280;1100;52.014;8.540;2023-02-01T01:59:49;100219.88;;;2.54;94.58
2188;BME280;1100;52.014;8.540;2023-02-01T02:02:16;100212.06;;;2.59;94.54
2188;BME280;1100;52.014;8.540;2023-02-01T02:04:42;100205.81;;;2.63;94.83
2188;BME280;1100;52.014;8.540;2023-02-01T02:07:23;100208.97;;;2.65;94.68
2188;BME280;1100;52.014;8.540;2023-02-01T02:09:50;100198.75;;;2.65;94.80
2188;BME280;1100;52.014;8.540;2023-02-01T02:12:16;100201.16;;;2.70;94.48
2188;BME280;1100;52.014;8.540;2023-02-01T02:14:41;100200.41;;;2.70;94.35
2188;BME280;1100;52.014;8.540;2023-02-01T02:23:03;100186.66;;;2.73;94.63
2188;BME280;1100;52.014;8.540;2023-02-01T02:25:52;100188.28;;;2.78;94.65
2188;BME280;1100;52.014;8.540;2023-02-01T02:47:59;100135.00;;;2.90;94.51
2188;BME280;1100;52.014;8.540;2023-02-01T02:50:34;100138.13;;;2.92;94.65
2188;BME280;1100;52.014;8.540;2023-02-01T02:53:35;100125.19;;;2.93;94.58
2188;BME280;1100;52.014;8.540;2023-02-01T02:56:22;100130.31;;;2.94;94.39
2188;BME280;1100;52.014;8.540;2023-02-01T02:59:09;100125.19;;;2.93;94.23
2188;BME280;1100;52.014;8.540;2023-02-01T03:01:56;100126.00;;;2.97;94.73
2188;BME280;1100;52.014;8.540;2023-02-01T03:04:40;100111.88;;;2.98;94.78
2188;BME280;1100;52.014;8.540;2023-02-01T03:07:42;100111.09;;;3.02;94.60
2188;BME280;1100;52.014;8.540;2023-02-01T03:10:03;100111.13;;;3.05;94.33
2188;BME280;1100;52.014;8.540;2023-02-01T03:12:34;100119.38;;;3.09;94.46
2188;BME280;1100;52.014;8.540;2023-02-01T03:15:24;100111.16;;;3.09;94.41
2188;BME280;1100;52.014;8.540;2023-02-01T03:17:53;100123.31;;;3.11;94.29
2188;BME280;1100;52.014;8.540;2023-02-01T03:20:22;100120.19;;;3.13;93.91
2188;BME280;1100;52.014;8.540;2023-02-01T03:22:51;100124.09;;;3.12;93.90
2188;BME280;1100;52.014;8.540;2023-02-01T03:25:22;100110.75;;;3.14;94.09
2188;BME280;1100;52.014;8.540;2023-02-01T03:27:52;100108.81;;;3.15;94.11
2188;BME280;1100;52.014;8.540;2023-02-01T03:32:54;100100.97;;;3.17;93.77
2188;BME280;1100;52.014;8.540;2023-02-01T03:38:01;100075.47;;;3.20;94.25
2188;BME280;1100;52.014;8.540;2023-02-01T03:40:30;100078.97;;;3.20;94.01
2188;BME280;1100;52.014;8.540;2023-02-01T03:43:01;100079.38;;;3.19;93.67
2188;BME280;1100;52.014;8.540;2023-02-01T03:45:34;100067.22;;;3.20;93.88
2188;BME280;1100;52.014;8.540;2023-02-01T03:48:02;100071.56;;;3.24;93.87
2188;BME280;1100;52.014;8.540;2023-02-01T03:50:30;100066.44;;;3.27;93.85
2188;BME280;1100;52.014;8.540;2023-02-01T03:53:02;100074.28;;;3.28;93.57
2188;BME280;1100;52.014;8.540;2023-02-01T03:55:30;100075.47;;;3.27;93.49
2188;BME280;1100;52.014;8.540;2023-02-01T03:58:16;100066.06;;;3.28;93.47
2188;BME280;1100;52.014;8.540;2023-02-01T04:00:54;100071.94;;;3.23;93.44
2188;BME280;1100;52.014;8.540;2023-02-01T04:03:20;100066.84;;;3.25;93.50
2188;BME280;1100;52.014;8.540;2023-02-01T04:05:49;100048.00;;;3.27;93.19
2188;BME280;1100;52.014;8.540;2023-02-01T04:08:15;100053.13;;;3.32;93.39
2188;BME280;1100;52.014;8.540;2023-02-01T04:10:40;100056.63;;;3.33;93.21
2188;BME280;1100;52.014;8.540;2023-02-01T04:13:06;100043.69;;;3.33;92.87
2188;BME280;1100;52.014;8.540;2023-02-01T04:15:31;100055.47;;;3.34;93.24
2188;BME280;1100;52.014;8.540;2023-02-01T04:17:57;100052.34;;;3.35;92.89
2188;BME280;1100;52.014;8.540;2023-02-01T04:20:22;100039.75;;;3.34;92.85
2188;BME280;1100;52.014;8.540;2023-02-01T04:22:48;100054.69;;;3.37;92.84
2188;BME280;1100;52.014;8.540;2023-02-01T04:25:13;100038.59;;;3.35;92.70
2188;BME280;1100;52.014;8.540;2023-02-01T04:27:39;100029.97;;;3.37;92.58
2188;BME280;1100;52.014;8.540;2023-02-01T04:30:04;100035.84;;;3.35;92.89
2188;BME280;1100;52.014;8.540;2023-02-01T04:32:30;100028.00;;;3.38;92.61
2188;BME280;1100;52.014;8.540;2023-02-01T04:34:55;100032.69;;;3.41;93.01
2188;BME280;1100;52.014;8.540;2023-02-01T04:37:21;100037.44;;;3.40;92.93
2188;BME280;1100;52.014;8.540;2023-02-01T04:39:46;100033.09;;;3.39;92.80
2188;BME280;1100;52.014;8.540;2023-02-01T04:42:12;100026.03;;;3.38;92.40
2188;BME280;1100;52.014;8.540;2023-02-01T04:44:37;100036.63;;;3.40;92.55
2188;BME280;1100;52.014;8.540;2023-02-01T04:47:04;100027.59;;;3.28;92.28
2188;BME280;1100;52.014;8.540;2023-02-01T04:49:30;100031.13;;;3.18;92.17
2188;BME280;1100;52.014;8.540;2023-02-01T04:51:58;100025.59;;;3.07;91.99
2188;BME280;1100;52.014;8.540;2023-02-01T04:54:24;100027.53;;;2.99;92.20
2188;BME280;1100;52.014;8.540;2023-02-01T04:56:53;100024.00;;;2.95;92.32
2188;BME280;1100;52.014;8.540;2023-02-01T04:59:18;100023.19;;;2.91;92.62
2188;BME280;1100;52.014;8.540;2023-02-01T05:01:46;100022.41;;;2.86;92.88
2188;BME280;1100;52.014;8.540;2023-02-01T05:04:11;100008.28;;;2.84;92.65
2188;BME280;1100;52.014;8.540;2023-02-01T05:06:37;100023.97;;;2.80;92.77
2188;BME280;1100;52.014;8.540;2023-02-01T05:09:02;100013.75;;;2.77;92.95
2188;BME280;1100;52.014;8.540;2023-02-01T05:11:27;100020.81;;;2.78;93.06
2188;BME280;1100;52.014;8.540;2023-02-01T05:14:11;100018.44;;;2.77;93.05
2188;BME280;1100;52.014;8.540;2023-02-01T05:16:36;100018.06;;;2.74;92.50
2188;BME280;1100;52.014;8.540;2023-02-01T05:19:02;100030.22;;;2.70;92.55
2188;BME280;1100;52.014;8.540;2023-02-01T05:21:27;100030.59;;;2.68;92.74
2188;BME280;1100;52.014;8.540;2023-02-01T05:23:53;100013.31;;;2.64;92.53
2188;BME280;1100;52.014;8.540;2023-02-01T05:26:38;100016.81;;;2.61;92.65
2188;BME280;1100;52.014;8.540;2023-02-01T05:29:04;100014.06;;;2.57;92.79
2188;BME280;1100;52.014;8.540;2023-02-01T05:31:30;99998.78;;;2.56;92.97
2188;BME280;1100;52.014;8.540;2023-02-01T05:33:55;100002.69;;;2.59;93.19
2188;BME280;1100;52.014;8.540;2023-02-01T05:36:21;99986.59;;;2.57;93.15
2188;BME280;1100;52.014;8.540;2023-02-01T05:38:46;99979.94;;;2.55;93.15
2188;BME280;1100;52.014;8.540;2023-02-01T05:41:11;99987.78;;;2.56;93.12
2188;BME280;1100;52.014;8.540;2023-02-01T05:43:37;99979.16;;;2.58;93.28
2188;BME280;1100;52.014;8.540;2023-02-01T05:46:02;99984.25;;;2.56;93.53
2188;BME280;1100;52.014;8.540;2023-02-01T05:48:28;99983.09;;;2.60;93.72
2188;BME280;1100;52.014;8.540;2023-02-01T05:50:53;99986.25;;;2.63;93.67
2188;BME280;1100;52.014;8.540;2023-02-01T05:53:18;99985.09;;;2.67;93.69
2188;BME280;1100;52.014;8.540;2023-02-01T05:55:47;99993.34;;;2.71;93.94
2188;BME280;1100;52.014;8.540;2023-02-01T05:58:12;99991.38;;;2.75;93.89
2188;BME280;1100;52.014;8.540;2023-02-01T06:00:38;99996.88;;;2.79;93.58
2188;BME280;1100;52.014;8.540;2023-02-01T06:03:04;99982.38;;;2.78;93.58
2188;BME280;1100;52.014;8.540;2023-02-01T06:05:29;99988.66;;;2.79;93.78
2188;BME280;1100;52.014;8.540;2023-02-01T06:07:55;99996.50;;;2.80;93.64
2188;BME280;1100;52.014;8.540;2023-02-01T06:10:22;99991.41;;;2.82;93.64
2188;BME280;1100;52.014;8.540;2023-02-01T06:12:48;99974.94;;;2.86;94.07
2188;BME280;1100;52.014;8.540;2023-02-01T06:15:14;99983.59;;;2.92;93.65
2188;BME280;1100;52.014;8.540;2023-02-01T06:17:44;99970.25;;;2.94;93.99
2188;BME280;1100;52.014;8.540;2023-02-01T06:20:11;99974.19;;;2.96;93.98
2188;BME280;1100;52.014;8.540;2023-02-01T06:22:38;99971.81;;;2.98;93.78
2188;BME280;1100;52.014;8.540;2023-02-01T06:25:04;99985.16;;;3.00;93.83
2188;BME280;1100;52.014;8.540;2023-02-01T06:27:30;99991.47;;;3.04;94.15
2188;BME280;1100;52.014;8.540;2023-02-01T06:29:57;99983.22;;;3.04;93.74
2188;BME280;1100;52.014;8.540;2023-02-01T06:32:22;100000.88;;;3.07;93.57
2188;BME280;1100;52.014;8.540;2023-02-01T06:34:48;100011.09;;;3.10;93.77
2188;BME280;1100;52.014;8.540;2023-02-01T06:37:14;100009.50;;;3.13;93.88
2188;BME280;1100;52.014;8.540;2023-02-01T06:39:39;99997.38;;;3.14;93.86
2188;BME280;1100;52.014;8.540;2023-02-01T06:42:04;100000.91;;;3.18;93.74
2188;BME280;1100;52.014;8.540;2023-02-01T06:44:30;99991.09;;;3.17;93.50
2188;BME280;1100;52.014;8.540;2023-02-01T06:46:55;100015.81;;;3.17;93.54
2188;BME280;1100;52.014;8.540;2023-02-01T06:49:21;100017.00;;;3.19;93.71
2188;BME280;1100;52.014;8.540;2023-02-01T06:51:46;100020.13;;;3.21;93.75
2188;BME280;1100;52.014;8.540;2023-02-01T06:54:12;100023.66;;;3.22;93.76
2188;BME280;1100;52.014;8.540;2023-02-01T06:56:38;100019.34;;;3.24;93.53
2188;BME280;1100;52.014;8.540;2023-02-01T06:59:07;100018.97;;;3.26;93.44
2188;BME280;1100;52.014;8.540;2023-02-01T07:01:33;100029.56;;;3.28;93.43
2188;BME280;1100;52.014;8.540;2023-02-01T07:03:59;100033.88;;;3.29;93.62
2188;BME280;1100;52.014;8.540;2023-02-01T07:06:24;100031.50;;;3.23;93.33
2188;BME280;1100;52.014;8.540;2023-02-01T07:08:50;100028.00;;;3.23;93.29
2188;BME280;1100;52.014;8.540;2023-02-01T07:11:17;100031.13;;;3.21;93.49
2188;BME280;1100;52.014;8.540;2023-02-01T07:13:43;100028.75;;;3.23;93.59
2188;BME280;1100;52.014;8.540;2023-02-01T07:16:11;100035.84;;;3.24;93.45
2188;BME280;1100;52.014;8.540;2023-02-01T07:18:36;100021.72;;;3.26;93.24
2188;BME280;1100;52.014;8.540;2023-02-01T07:21:02;100042.91;;;3.26;93.58
2188;BME280;1100;52.014;8.540;2023-02-01T07:23:27;100053.09;;;3.25;93.40
2188;BME280;1100;52.014;8.540;2023-02-01T07:25:59;100048.38;;;3.22;93.49
2188;BME280;1100;52.014;8.540;2023-02-01T07:28:24;100049.16;;;3.19;93.23
2188;BME280;1100;52.014;8.540;2023-02-01T07:30:50;100055.47;;;3.23;93.37
2188;BME280;1100;52.014;8.540;2023-02-01T07:33:20;100049.19;;;3.26;93.32
2188;BME280;1100;52.014;8.540;2023-02-01T07:35:46;100065.69;;;3.26;93.22
2188;BME280;1100;52.014;8.540;2023-02-01T07:38:12;100063.31;;;3.28;93.39
2188;BME280;1100;52.014;8.540;2023-02-01T07:40:37;100069.59;;;3.29;93.23
2188;BME280;1100;52.014;8.540;2023-02-01T07:43:02;100076.25;;;3.31;93.23
2188;BME280;1100;52.014;8.540;2023-02-01T07:45:31;100058.63;;;3.32;93.36
2188;BME280;1100;52.014;8.540;2023-02-01T07:47:56;100050.00;;;3.34;93.32
2188;BME280;1100;52.014;8.540;2023-02-01T07:50:21;100063.34;;;3.35;93.29
2188;BME280;1100;52.014;8.540;2023-02-01T07:52:46;100068.84;;;3.35;93.28
2188;BME280;1100;52.014;8.540;2023-02-01T07:55:12;100080.22;;;3.34;93.20
2188;BME280;1100;52.014;8.540;2023-02-01T07:57:37;100083.34;;;3.32;92.88
2188;BME280;1100;52.014;8.540;2023-02-01T08:00:03;100081.38;;;3.29;93.23
2188;BME280;1100;52.014;8.540;2023-02-01T08:02:47;100082.94;;;3.27;93.16
2188;BME280;1100;52.014;8.540;2023-02-01T08:05:12;100083.31;;;3.25;93.04
2188;BME280;1100;52.014;8.540;2023-02-01T08:07:38;100075.47;;;3.20;93.03
2188;BME280;1100;52.014;8.540;2023-02-01T08:10:03;100075.84;;;3.22;93.20
2188;BME280;1100;52.014;8.540;2023-02-01T08:12:30;100075.06;;;3.25;92.85
2188;BME280;1100;52.014;8.540;2023-02-01T08:14:56;100079.00;;;3.24;92.99
2188;BME280;1100;52.014;8.540;2023-02-01T08:17:21;100079.00;;;3.24;93.24
2188;BME280;1100;52.014;8.540;2023-02-01T08:19:46;100083.72;;;3.27;93.37
2188;BME280;1100;52.014;8.540;2023-02-01T08:22:12;100085.69;;;3.30;93.26
2188;BME280;1100;52.014;8.540;2023-02-01T08:24:37;100089.63;;;3.36;93.29
2188;BME280;1100;52.014;8.540;2023-02-01T08:27:06;100090.81;;;3.43;93.31
2188;BME280;1100;52.014;8.540;2023-02-01T08:29:32;100086.09;;;3.47;93.13
2188;BME280;1100;52.014;8.540;2023-02-01T08:31:57;100085.34;;;3.46;93.15
2188;BME280;1100;52.014;8.540;2023-02-01T08:34:23;100082.97;;;3.48;93.07
2188;BME280;1100;52.014;8.540;2023-02-01T08:36:48;100087.69;;;3.52;93.23
2188;BME280;1100;52.014;8.540;2023-02-01T08:39:14;100096.72;;;3.52;93.04
2188;BME280;1100;52.014;8.540;2023-02-01T08:41:39;100088.47;;;3.52;93.25
2188;BME280;1100;52.014;8.540;2023-02-01T08:44:07;100103.41;;;3.51;93.25
2188;BME280;1100;52.014;8.540;2023-02-01T08:46:32;100084.56;;;3.49;93.11
2188;BME280;1100;52.014;8.540;2023-02-01T08:48:58;100085.31;;;3.50;93.09
2188;BME280;1100;52.014;8.540;2023-02-01T08:51:24;100084.53;;;3.53;93.14
2188;BME280;1100;52.014;8.540;2023-02-01T08:53:49;100093.59;;;3.57;93.21
2188;BME280;1100;52.014;8.540;2023-02-01T08:56:15;100087.69;;;3.63;93.42
2188;BME280;1100;52.014;8.540;2023-02-01T08:58:41;100098.69;;;3.66;93.17
2188;BME280;1100;52.014;8.540;2023-02-01T09:01:09;100100.28;;;3.71;93.31
2188;BME280;1100;52.014;8.540;2023-02-01T09:03:35;100094.00;;;3.74;93.07
2188;BME280;1100;52.014;8.540;2023-02-01T09:06:05;100090.09;;;3.82;92.86
2188;BME280;1100;52.014;8.540;2023-02-01T09:08:31;100083.78;;;3.85;92.93
2188;BME280;1100;52.014;8.540;2023-02-01T09:11:01;100087.72;;;3.92;92.54
2188;BME280;1100;52.014;8.540;2023-02-01T09:13:27;100090.88;;;4.01;92.61
2188;BME280;1100;52.014;8.540;2023-02-01T09:15:52;100080.66;;;4.13;92.45
2188;BME280;1100;52.014;8.540;2023-02-01T09:18:17;100084.97;;;4.17;92.92
2188;BME280;1100;52.014;8.540;2023-02-01T09:20:43;100079.44;;;4.21;92.67
2188;BME280;1100;52.014;8.540;2023-02-01T09:23:08;100072.78;;;4.22;92.76
2188;BME280;1100;52.014;8.540;2023-02-01T09:25:34;100080.63;;;4.23;92.35
2188;BME280;1100;52.014;8.540;2023-02-01T09:27:59;100070.00;;;4.26;92.51
2188;BME280;1100;52.014;8.540;2023-02-01T09:30:24;100073.94;;;4.24;91.85
2188;BME280;1100;52.014;8.540;2023-02-01T09:32:50;100095.94;;;4.24;92.34
2188;BME280;1100;52.014;8.540;2023-02-01T09:35:15;100083.00;;;4.25;92.15
2188;BME280;1100;52.014;8.540;2023-02-01T09:37:41;100067.63;;;4.24;92.05
2188;BME280;1100;52.014;8.540;2023-02-01T09:40:09;100079.03;;;4.26;92.29
2188;BME280;1100;52.014;8.540;2023-02-01T09:45:28;100055.03;;;4.30;91.88
2188;BME280;1100;52.014;8.540;2023-02-01T09:48:02;100064.50;;;4.29;91.62
2188;BME280;1100;52.014;8.540;2023-02-01T09:50:35;100076.69;;;4.28;91.61
2188;BME280;1100;52.014;8.540;2023-02-01T09:53:15;100067.25;;;4.26;91.70
2188;BME280;1100;52.014;8.540;2023-02-01T09:55:45;100068.03;;;4.30;91.65
2188;BME280;1100;52.014;8.540;2023-02-01T09:58:25;100067.66;;;4.31;91.45
2188;BME280;1100;52.014;8.540;2023-02-01T10:00:55;100062.13;;;4.35;91.49
2188;BME280;1100;52.014;8.540;2023-02-01T10:03:24;100077.47;;;4.36;91.59
2188;BME280;1100;52.014;8.540;2023-02-01T10:11:24;100060.53;;;4.45;91.18
2188;BME280;1100;52.014;8.540;2023-02-01T10:14:10;100054.63;;;4.50;90.77
2188;BME280;1100;52.014;8.540;2023-02-01T10:19:19;100042.78;;;4.60;90.86
2188;BME280;1100;52.014;8.540;2023-02-01T10:21:54;100052.19;;;4.67;91.15
2188;BME280;1100;52.014;8.540;2023-02-01T10:27:14;100053.34;;;4.69;90.78
2188;BME280;1100;52.014;8.540;2023-02-01T10:29:44;100043.94;;;4.67;91.21
2188;BME280;1100;52.014;8.540;2023-02-01T10:32:17;100052.59;;;4.65;91.04
2188;BME280;1100;52.014;8.540;2023-02-01T10:34:47;100052.19;;;4.63;91.02
2188;BME280;1100;52.014;8.540;2023-02-01T10:37:34;100045.91;;;4.63;90.95
2188;BME280;1100;52.014;8.540;2023-02-01T10:40:19;100056.16;;;4.58;90.80
2188;BME280;1100;52.014;8.540;2023-02-01T10:42:47;100049.88;;;4.54;90.80
2188;BME280;1100;52.014;8.540;2023-02-01T10:45:23;100053.44;;;4.51;90.72
2188;BME280;1100;52.014;8.540;2023-02-01T10:47:51;100042.81;;;4.46;91.08
2188;BME280;1100;52.014;8.540;2023-02-01T10:50:57;100043.22;;;4.48;90.91
2188;BME280;1100;52.014;8.540;2023-02-01T10:56:10;100049.09;;;4.54;90.72
2188;BME280;1100;52.014;8.540;2023-02-01T10:58:43;100053.78;;;4.57;90.75
2188;BME280;1100;52.014;8.540;2023-02-01T11:01:16;100052.22;;;4.59;90.80
2188;BME280;1100;52.014;8.540;2023-02-01T11:03:44;100043.56;;;4.57;90.56
2188;BME280;1100;52.014;8.540;2023-02-01T11:08:50;100041.63;;;4.54;91.07
2188;BME280;1100;52.014;8.540;2023-02-01T11:11:16;100036.09;;;4.54;90.90
2188;BME280;1100;52.014;8.540;2023-02-01T11:13:42;100018.78;;;4.54;90.77
2188;BME280;1100;52.014;8.540;2023-02-01T11:16:11;100023.91;;;4.55;90.39
2188;BME280;1100;52.014;8.540;2023-02-01T11:18:38;100011.31;;;4.58;90.54
2188;BME280;1100;52.014;8.540;2023-02-01T11:21:05;100010.94;;;4.59;90.58
2188;BME280;1100;52.014;8.540;2023-02-01T11:23:32;100003.03;;;4.65;90.34
2188;BME280;1100;52.014;8.540;2023-02-01T11:26:09;99999.88;;;4.67;90.54
2188;BME280;1100;52.014;8.540;2023-02-01T11:28:38;99989.25;;;4.69;90.02
2188;BME280;1100;52.014;8.540;2023-02-01T11:31:08;99995.53;;;4.69;90.02
2188;BME280;1100;52.014;8.540;2023-02-01T11:33:36;99980.59;;;4.67;90.37
2188;BME280;1100;52.014;8.540;2023-02-01T11:36:17;99979.03;;;4.66;90.41
2188;BME280;1100;52.014;8.540;2023-02-01T11:39:36;99975.91;;;4.64;89.92
2188;BME280;1100;52.014;8.540;2023-02-01T11:44:35;99964.88;;;4.64;89.77
2188;BME280;1100;52.014;8.540;2023-02-01T11:49:54;99946.81;;;4.63;89.73
2188;BME280;1100;52.014;8.540;2023-02-01T11:52:33;99942.09;;;4.59;89.83
2188;BME280;1100;52.014;8.540;2023-02-01T11:55:16;99929.53;;;4.51;89.55
2188;BME280;1100;52.014;8.540;2023-02-01T11:58:12;99951.63;;;4.40;89.97
2188;BME280;1100;52.014;8.540;2023-02-01T12:01:28;99931.22;;;4.30;89.87
2188;BME280;1100;52.014;8.540;2023-02-01T12:04:08;99937.94;;;4.22;90.36
2188;BME280;1100;52.014;8.540;2023-02-01T12:06:51;99938.38;;;4.09;89.93
2188;BME280;1100;52.014;8.540;2023-02-01T12:22:54;99939.25;;;3.52;90.39
2188;BME280;1100;52.014;8.540;2023-02-01T12:31:15;99912.59;;;3.41;90.99
2188;BME280;1100;52.014;8.540;2023-02-01T12:36:35;99898.84;;;3.38;91.36
2188;BME280;1100;52.014;8.540;2023-02-01T12:41:51;99897.66;;;3.31;91.66
2188;BME280;1100;52.014;8.540;2023-02-01T12:44:37;99910.63;;;3.27;91.41
2188;BME280;1100;52.014;8.540;2023-02-01T12:48:08;99902.41;;;3.20;91.63
2188;BME280;1100;52.014;8.540;2023-02-01T12:50:53;99902.78;;;3.15;91.68
2188;BME280;1100;52.014;8.540;2023-02-01T12:53:25;99889.03;;;3.11;91.67
2188;BME280;1100;52.014;8.540;2023-02-01T12:55:55;99875.34;;;3.07;92.26
2188;BME280;1100;52.014;8.540;2023-02-01T13:00:59;99880.81;;;3.04;92.28
2188;BME280;1100;52.014;8.540;2023-02-01T13:03:36;99893.75;;;3.03;92.61
2188;BME280;1100;52.014;8.540;2023-02-01T13:08:38;99874.16;;;3.01;92.85
2188;BME280;1100;52.014;8.540;2023-02-01T13:11:26;99876.50;;;2.99;92.94
2188;BME280;1100;52.014;8.540;2023-02-01T13:14:02;99863.56;;;2.99;92.90
2188;BME280;1100;52.014;8.540;2023-02-01T13:16:35;99860.81;;;2.99;92.98
2188;BME280;1100;52.014;8.540;2023-02-01T13:19:16;99854.53;;;3.03;93.13
2188;BME280;1100;52.014;8.540;2023-02-01T13:21:48;99856.47;;;3.09;93.54
2188;BME280;1100;52.014;8.540;2023-02-01T13:24:48;99851.75;;;3.17;93.81
2188;BME280;1100;52.014;8.540;2023-02-01T13:27:16;99863.16;;;3.23;93.23
2188;BME280;1100;52.014;8.540;2023-02-01T13:35:16;99876.47;;;3.28;93.67
2188;BME280;1100;52.014;8.540;2023-02-01T13:43:16;99865.47;;;3.39;94.36
2188;BME280;1100;52.014;8.540;2023-02-01T13:45:47;99860.38;;;3.41;94.13
2188;BME280;1100;52.014;8.540;2023-02-01T13:50:58;99855.25;;;3.47;94.29
2188;BME280;1100;52.014;8.540;2023-02-01T13:53:33;99852.50;;;3.51;94.54
2188;BME280;1100;52.014;8.540;2023-02-01T13:56:01;99851.72;;;3.57;94.75
2188;BME280;1100;52.014;8.540;2023-02-01T13:58:32;99857.97;;;3.65;94.41
2188;BME280;1100;52.014;8.540;2023-02-01T14:04:06;99872.88;;;3.71;94.49
2188;BME280;1100;52.014;8.540;2023-02-01T14:11:52;99875.19;;;3.77;94.45
2188;BME280;1100;52.014;8.540;2023-02-01T14:19:24;99919.63;;;3.64;94.79
2188;BME280;1100;52.014;8.540;2023-02-01T14:21:51;99935.72;;;3.55;94.30
2188;BME280;1100;52.014;8.540;2023-02-01T14:24:44;99939.28;;;3.41;93.92
2188;BME280;1100;52.014;8.540;2023-02-01T14:27:21;99942.41;;;3.28;94.08
2188;BME280;1100;52.014;8.540;2023-02-01T14:29:53;99900.44;;;3.20;94.17
2188;BME280;1100;52.014;8.540;2023-02-01T14:32:41;99903.97;;;3.06;93.99
2188;BME280;1100;52.014;8.540;2023-02-01T14:35:20;99957.69;;;2.93;93.81
2188;BME280;1100;52.014;8.540;2023-02-01T14:37:50;99944.34;;;2.80;93.65
2188;BME280;1100;52.014;8.540;2023-02-01T14:40:25;99930.56;;;2.66;93.85
2188;BME280;1100;52.014;8.540;2023-02-01T14:42:52;99934.84;;;2.56;94.03
2188;BME280;1100;52.014;8.540;2023-02-01T14:47:52;99932.50;;;2.51;94.00
2188;BME280;1100;52.014;8.540;2023-02-01T14:55:43;99914.09;;;2.58;94.33
2188;BME280;1100;52.014;8.540;2023-02-01T15:00:59;99926.22;;;2.57;94.30
2188;BME280;1100;52.014;8.540;2023-02-01T15:06:20;99949.75;;;2.55;94.63
2188;BME280;1100;52.014;8.540;2023-02-01T15:08:46;99950.94;;;2.61;94.77
2188;BME280;1100;52.014;8.540;2023-02-01T15:11:15;99952.16;;;2.71;95.06
2188;BME280;1100;52.014;8.540;2023-02-01T15:13:48;99958.06;;;2.77;95.15
2188;BME280;1100;52.014;8.540;2023-02-01T15:16:15;99965.13;;;2.81;94.73
2188;BME280;1100;52.014;8.540;2023-02-01T15:18:41;99955.72;;;2.86;95.06
2188;BME280;1100;52.014;8.540;2023-02-01T15:21:16;99966.72;;;2.97;95.60
2188;BME280;1100;52.014;8.540;2023-02-01T15:23:42;99950.66;;;3.06;95.47
2188;BME280;1100;52.014;8.540;2023-02-01T15:26:07;99961.66;;;3.14;95.14
2188;BME280;1100;52.014;8.540;2023-02-01T15:28:33;99954.97;;;3.22;95.45
2188;BME280;1100;52.014;8.540;2023-02-01T15:31:01;99954.59;;;3.27;95.34
2188;BME280;1100;52.014;8.540;2023-02-01T15:33:28;99955.78;;;3.26;95.21
2188;BME280;1100;52.014;8.540;2023-02-01T15:36:18;99947.91;;;3.32;95.17
2188;BME280;1100;52.014;8.540;2023-02-01T15:38:44;99958.91;;;3.32;95.07
2188;BME280;1100;52.014;8.540;2023-02-01T15:41:14;99958.53;;;3.33;95.28
2188;BME280;1100;52.014;8.540;2023-02-01T15:43:49;99970.69;;;3.29;94.75
2188;BME280;1100;52.014;8.540;2023-02-01T15:46:40;99976.59;;;3.31;95.26
2188;BME280;1100;52.014;8.540;2023-02-01T15:49:29;99973.03;;;3.27;95.19